createdAt,value
2018-06-19T00:01:32.589Z,11.22
2018-06-19T00:04:00.746Z,10.72
2018-06-19T00:06:28.908Z,10.38
2018-06-19T00:08:57.069Z,10.30
2018-06-19T00:11:25.261Z,10.30
2018-06-19T00:13:53.417Z,10.65
2018-06-19T00:16:21.581Z,11.00
2018-06-19T00:18:52.001Z,9.73
2018-06-19T00:21:24.998Z,10.00
2018-06-19T00:23:53.177Z,10.32
2018-06-19T00:26:21.377Z,9.98
2018-06-19T00:28:49.554Z,9.60
2018-06-19T00:31:17.721Z,10.38
2018-06-19T00:33:45.907Z,11.18
2018-06-19T00:36:14.053Z,8.95
2018-06-19T00:38:42.237Z,8.38
2018-06-19T00:41:10.393Z,7.37
2018-06-19T00:43:38.558Z,7.00
2018-06-19T00:46:07.566Z,8.13
2018-06-19T00:48:35.733Z,6.45
2018-06-19T00:51:03.898Z,6.75
2018-06-19T00:53:32.053Z,6.83
2018-06-19T00:56:11.933Z,6.55
2018-06-19T00:58:40.142Z,5.30
2018-06-19T01:01:08.321Z,7.55
2018-06-19T01:03:36.688Z,5.42
2018-06-19T01:06:04.834Z,4.58
2018-06-19T01:08:32.990Z,6.10
2018-06-19T01:11:01.238Z,5.45
2018-06-19T01:13:29.401Z,5.80
2018-06-19T01:15:57.576Z,4.28
2018-06-19T01:18:25.720Z,4.35
2018-06-19T01:20:53.873Z,4.60
2018-06-19T01:23:22.116Z,5.90
2018-06-19T01:25:50.281Z,4.47
2018-06-19T01:28:18.508Z,9.68
2018-06-19T01:30:46.661Z,4.15
2018-06-19T01:33:14.844Z,4.55
2018-06-19T01:35:43.016Z,6.53
2018-06-19T01:38:11.464Z,5.30
2018-06-19T01:40:39.585Z,4.40
2018-06-19T01:43:07.786Z,5.65
2018-06-19T01:45:35.930Z,6.20
2018-06-19T01:48:04.110Z,5.72
2018-06-19T01:50:32.279Z,4.70
2018-06-19T01:53:00.462Z,4.78
2018-06-19T01:55:28.639Z,5.03
2018-06-19T01:57:56.826Z,6.45
2018-06-19T02:00:24.999Z,6.35
2018-06-19T02:02:53.178Z,7.15
2018-06-19T02:05:21.351Z,4.62
2018-06-19T02:07:49.501Z,4.70
2018-06-19T02:10:17.685Z,5.30
2018-06-19T02:12:45.869Z,5.45
2018-06-19T02:15:14.029Z,4.97
2018-06-19T02:17:42.259Z,5.78
2018-06-19T02:20:10.435Z,5.10
2018-06-19T02:22:38.654Z,5.55
2018-06-19T02:25:06.846Z,5.97
2018-06-19T02:27:35.019Z,4.58
2018-06-19T02:30:03.190Z,6.37
2018-06-19T02:32:31.336Z,5.40
2018-06-19T02:34:59.493Z,5.40
2018-06-19T02:37:27.635Z,5.08
2018-06-19T02:39:55.816Z,4.58
2018-06-19T02:42:24.053Z,5.22
2018-06-19T02:44:52.217Z,3.77
2018-06-19T02:47:20.386Z,4.85
2018-06-19T02:49:48.596Z,4.47
2018-06-19T02:52:16.877Z,3.95
2018-06-19T02:54:45.038Z,4.62
2018-06-19T02:57:13.251Z,7.55
2018-06-19T02:59:41.442Z,3.70
2018-06-19T03:02:09.601Z,8.03
2018-06-19T03:04:37.747Z,3.70
2018-06-19T03:07:05.933Z,4.03
2018-06-19T03:09:34.073Z,6.17
2018-06-19T03:12:02.231Z,4.03
2018-06-19T03:14:30.373Z,4.70
2018-06-19T03:16:58.541Z,6.85
2018-06-19T03:19:26.716Z,3.98
2018-06-19T03:21:54.856Z,4.00
2018-06-19T03:24:23.007Z,6.03
2018-06-19T03:26:51.165Z,3.60
2018-06-19T03:29:19.089Z,4.25
2018-06-19T03:31:47.253Z,6.22
2018-06-19T03:34:15.406Z,3.17
2018-06-19T03:36:43.573Z,3.87
2018-06-19T03:39:12.413Z,7.47
2018-06-19T03:41:41.217Z,5.67
2018-06-19T03:44:09.582Z,4.35
2018-06-19T03:46:38.204Z,6.33
2018-06-19T03:49:06.362Z,3.30
2018-06-19T03:51:34.542Z,3.62
2018-06-19T03:54:02.998Z,6.40
2018-06-19T03:56:31.229Z,5.33
2018-06-19T03:58:59.398Z,7.90
2018-06-19T04:01:27.560Z,6.00
2018-06-19T04:03:55.730Z,6.33
2018-06-19T04:06:27.385Z,5.60
2018-06-19T04:08:55.544Z,5.80
2018-06-19T04:11:23.694Z,7.83
2018-06-19T04:13:51.870Z,5.58
2018-06-19T04:16:20.090Z,6.25
2018-06-19T04:18:48.321Z,5.50
2018-06-19T04:21:16.498Z,9.28
2018-06-19T04:23:44.694Z,4.42
2018-06-19T04:26:12.849Z,9.03
2018-06-19T04:28:41.021Z,4.12
2018-06-19T04:31:09.239Z,7.30
2018-06-19T04:33:37.489Z,4.95
2018-06-19T04:36:05.660Z,6.08
2018-06-19T04:38:33.871Z,10.65
2018-06-19T04:41:02.067Z,6.50
2018-06-19T04:43:30.237Z,6.22
2018-06-19T04:45:58.399Z,6.33
2018-06-19T04:48:26.576Z,8.95
2018-06-19T04:50:54.761Z,5.75
2018-06-19T04:53:22.934Z,4.55
2018-06-19T04:55:51.193Z,7.55
2018-06-19T04:58:19.364Z,8.85
2018-06-19T05:00:47.530Z,5.90
2018-06-19T05:03:15.714Z,5.30
2018-06-19T05:05:43.865Z,8.08
2018-06-19T05:08:12.041Z,7.30
2018-06-19T05:10:40.225Z,6.87
2018-06-19T05:13:08.425Z,9.68
2018-06-19T05:15:36.626Z,7.60
2018-06-19T05:18:04.946Z,9.18
2018-06-19T05:20:33.155Z,6.70
2018-06-19T05:23:01.333Z,6.33
2018-06-19T05:25:29.528Z,8.08
2018-06-19T05:27:57.713Z,6.62
2018-06-19T05:30:25.915Z,7.97
2018-06-19T05:32:54.185Z,7.12
2018-06-19T05:35:22.358Z,7.58
2018-06-19T05:37:50.582Z,9.58
2018-06-19T05:40:18.742Z,7.65
2018-06-19T05:42:46.932Z,7.20
2018-06-19T05:45:15.102Z,7.75
2018-06-19T05:47:43.269Z,7.15
2018-06-19T05:50:11.453Z,6.22
2018-06-19T05:52:39.621Z,6.15
2018-06-19T05:55:07.802Z,8.08
2018-06-19T05:57:35.962Z,10.75
2018-06-19T06:00:04.501Z,7.97
2018-06-19T06:02:32.688Z,10.18
2018-06-19T06:05:00.849Z,9.93
2018-06-19T06:07:29.023Z,9.23
2018-06-19T06:09:57.197Z,10.05
2018-06-19T06:12:25.490Z,7.67
2018-06-19T06:14:53.674Z,10.90
2018-06-19T06:17:21.863Z,9.90
2018-06-19T06:19:50.022Z,14.30
2018-06-19T06:22:18.184Z,9.45
2018-06-19T06:24:46.365Z,11.15
2018-06-19T06:27:14.537Z,12.53
2018-06-19T06:29:42.689Z,9.03
2018-06-19T06:32:10.858Z,7.87
2018-06-19T06:34:39.045Z,10.43
2018-06-19T06:37:07.229Z,9.90
2018-06-19T06:39:35.374Z,12.78
2018-06-19T06:42:03.537Z,15.45
2018-06-19T06:44:31.688Z,10.75
2018-06-19T06:46:59.864Z,9.55
2018-06-19T06:49:28.025Z,14.07
2018-06-19T06:51:56.221Z,10.75
2018-06-19T06:54:24.391Z,12.20
2018-06-19T06:56:56.946Z,10.95
2018-06-19T06:59:25.128Z,10.20
2018-06-19T07:01:53.349Z,10.38
2018-06-19T07:04:21.557Z,11.68
2018-06-19T07:06:50.485Z,11.95
2018-06-19T07:09:18.642Z,12.78
2018-06-19T07:11:46.981Z,11.70
2018-06-19T07:14:15.169Z,13.03
2018-06-19T07:16:43.343Z,13.90
2018-06-19T07:19:11.599Z,14.85
2018-06-19T07:21:39.673Z,18.10
2018-06-19T07:24:07.877Z,13.22
2018-06-19T07:26:36.097Z,15.20
2018-06-19T07:29:04.386Z,19.30
2018-06-19T07:31:32.639Z,15.40
2018-06-19T07:34:00.797Z,15.38
2018-06-19T07:36:29.005Z,20.77
2018-06-19T07:38:57.188Z,15.25
2018-06-19T07:41:25.358Z,14.80
2018-06-19T07:43:53.601Z,20.75
2018-06-19T07:46:21.691Z,16.20
2018-06-19T07:48:49.917Z,17.07
2018-06-19T07:51:18.213Z,13.98
2018-06-19T07:53:46.406Z,18.42
2018-06-19T07:56:14.593Z,18.90
2018-06-19T07:58:42.794Z,17.73
2018-06-19T08:01:10.967Z,19.07
2018-06-19T08:03:39.192Z,15.55
2018-06-19T08:06:07.168Z,15.38
2018-06-19T08:08:35.364Z,17.00
2018-06-19T08:11:03.528Z,20.45
2018-06-19T08:13:31.773Z,17.48
2018-06-19T08:15:59.943Z,18.37
2018-06-19T08:18:28.161Z,21.68
2018-06-19T08:20:56.330Z,20.88
2018-06-19T08:23:24.613Z,19.77
2018-06-19T08:25:52.805Z,22.00
2018-06-19T08:28:20.978Z,19.82
2018-06-19T08:30:49.186Z,22.22
2018-06-19T08:33:17.375Z,23.07
2018-06-19T08:35:45.554Z,22.30
2018-06-19T08:38:13.777Z,21.52
2018-06-19T08:40:41.970Z,21.70
2018-06-19T08:43:10.140Z,21.40
2018-06-19T08:45:38.392Z,22.00
2018-06-19T08:48:06.598Z,20.92
2018-06-19T08:50:34.765Z,21.50
2018-06-19T08:53:02.938Z,24.15
2018-06-19T08:55:31.218Z,24.18
2018-06-19T08:57:59.426Z,22.80
2018-06-19T09:00:27.602Z,24.07
2018-06-19T09:02:55.795Z,23.52
2018-06-19T09:05:24.000Z,22.13
2018-06-19T09:07:52.231Z,27.98
2018-06-19T09:10:20.470Z,25.92
2018-06-19T09:12:48.642Z,26.77
2018-06-19T09:15:16.830Z,26.70
2018-06-19T09:17:45.017Z,26.07
2018-06-19T09:20:13.302Z,27.22
2018-06-19T09:22:41.397Z,24.80
2018-06-19T09:25:09.887Z,29.25
2018-06-19T09:27:38.063Z,27.17
2018-06-19T09:30:06.242Z,26.20
2018-06-19T09:32:34.509Z,24.80
2018-06-19T09:35:02.718Z,24.60
2018-06-19T09:37:30.924Z,26.82
2018-06-19T09:39:59.102Z,29.10
2018-06-19T09:42:27.337Z,31.12
2018-06-19T09:44:55.520Z,29.85
2018-06-19T09:47:23.725Z,25.48
2018-06-19T09:49:52.005Z,27.65
2018-06-19T09:52:20.198Z,28.17
2018-06-19T09:54:48.373Z,26.62
2018-06-19T09:57:16.565Z,27.42
2018-06-19T09:59:44.725Z,29.10
2018-06-19T10:02:13.222Z,28.30
2018-06-19T10:04:41.379Z,34.10
2018-06-19T10:07:09.574Z,26.75
2018-06-19T10:09:37.737Z,32.00
2018-06-19T10:12:05.965Z,27.67
2018-06-19T10:14:34.110Z,28.10
2018-06-19T10:17:02.290Z,31.40
2018-06-19T10:19:30.499Z,25.40
2018-06-19T10:21:58.657Z,32.25
2018-06-19T10:24:26.833Z,28.98
2018-06-19T10:26:55.046Z,29.65
2018-06-19T10:29:23.341Z,30.88
2018-06-19T10:31:51.519Z,30.30
2018-06-19T10:34:19.717Z,30.77
2018-06-19T10:36:47.885Z,26.35
2018-06-19T10:39:16.062Z,25.20
2018-06-19T10:41:44.321Z,28.83
2018-06-19T10:44:12.541Z,25.52
2018-06-19T10:46:40.722Z,30.55
2018-06-19T10:49:08.927Z,29.25
2018-06-19T10:51:37.133Z,31.15
2018-06-19T10:54:05.333Z,26.52
2018-06-19T10:56:33.558Z,29.32
2018-06-19T10:59:01.786Z,29.55
2018-06-19T11:01:29.980Z,27.82
2018-06-19T11:03:58.158Z,27.77
2018-06-19T11:06:26.313Z,28.73
2018-06-19T11:08:54.540Z,30.32
2018-06-19T11:11:22.702Z,30.20
2018-06-19T11:13:51.714Z,29.02
2018-06-19T11:16:19.898Z,29.65
2018-06-19T11:18:48.080Z,29.37
2018-06-19T11:21:16.317Z,28.83
2018-06-19T11:23:44.476Z,25.80
2018-06-19T11:26:12.908Z,30.50
2018-06-19T11:28:41.053Z,26.82
2018-06-19T11:31:09.274Z,28.67
2018-06-19T11:33:37.196Z,28.73
2018-06-19T11:36:05.389Z,26.55
2018-06-19T11:38:33.562Z,29.07
2018-06-19T11:41:01.708Z,29.18
2018-06-19T11:43:29.913Z,29.35
2018-06-19T11:45:58.085Z,26.40
2018-06-19T11:48:26.256Z,29.77
2018-06-19T11:50:54.543Z,28.42
2018-06-19T11:53:22.718Z,27.67
2018-06-19T11:55:50.978Z,26.20
2018-06-19T11:58:19.161Z,27.73
2018-06-19T12:00:47.377Z,28.40
2018-06-19T12:03:15.713Z,26.90
2018-06-19T12:05:43.997Z,28.98
2018-06-19T12:08:12.194Z,26.87
2018-06-19T12:10:40.375Z,24.30
2018-06-19T12:13:08.653Z,25.52
2018-06-19T12:15:36.783Z,24.27
2018-06-19T12:18:05.122Z,25.15
2018-06-19T12:20:33.282Z,23.30
2018-06-19T12:23:01.470Z,22.55
2018-06-19T12:25:29.655Z,25.05
2018-06-19T12:27:57.963Z,21.23
2018-06-19T12:30:26.150Z,26.33
2018-06-19T12:32:54.329Z,20.68
2018-06-19T12:35:22.530Z,16.42
2018-06-19T12:37:50.703Z,19.50
2018-06-19T12:40:24.477Z,22.93
2018-06-19T12:42:52.679Z,21.40
2018-06-19T12:45:20.811Z,19.32
2018-06-19T12:47:49.040Z,22.25
2018-06-19T12:51:28.898Z,24.23
2018-06-19T12:54:08.702Z,22.20
2018-06-19T12:56:36.974Z,22.93
2018-06-19T12:59:06.136Z,26.15
2018-06-19T13:01:34.482Z,23.45
2018-06-19T13:04:14.154Z,14.40
2018-06-19T13:06:44.536Z,17.67
2018-06-19T13:09:12.988Z,19.27
2018-06-19T13:11:41.170Z,19.73
2018-06-19T13:14:21.418Z,18.90
2018-06-19T13:17:01.174Z,19.92
2018-06-19T13:19:40.660Z,20.68
2018-06-19T13:22:08.981Z,21.35
2018-06-19T13:24:37.145Z,22.13
2018-06-19T13:27:05.318Z,17.87
2018-06-19T13:29:47.225Z,20.43
2018-06-19T13:32:15.170Z,22.05
2018-06-19T13:34:43.377Z,20.43
2018-06-19T13:37:11.561Z,21.90
2018-06-19T13:39:40.438Z,20.45
2018-06-19T13:42:33.846Z,20.00
2018-06-19T13:45:04.553Z,19.90
2018-06-19T13:47:32.740Z,18.12
2018-06-19T13:50:01.196Z,18.20
2018-06-19T13:52:29.456Z,22.27
2018-06-19T13:56:06.381Z,20.32
2018-06-19T13:58:35.032Z,18.07
2018-06-19T14:01:02.968Z,17.30
2018-06-19T14:03:31.194Z,20.10
2018-06-19T14:05:59.382Z,19.40
2018-06-19T14:09:42.514Z,19.90
2018-06-19T14:12:23.758Z,22.75
2018-06-19T14:14:53.803Z,23.87
2018-06-19T14:17:22.397Z,18.67
2018-06-19T14:19:50.606Z,22.60
2018-06-19T14:22:18.777Z,17.40
2018-06-19T14:24:47.413Z,16.00
2018-06-19T14:27:15.613Z,17.12
2018-06-19T14:29:43.789Z,17.27
2018-06-19T14:32:11.952Z,16.45
2018-06-19T14:34:40.124Z,15.48
2018-06-19T14:37:08.426Z,15.60
2018-06-19T14:39:36.689Z,17.50
2018-06-19T14:42:04.940Z,13.32
2018-06-19T14:44:33.266Z,13.40
2018-06-19T14:47:01.512Z,19.65
2018-06-19T14:49:29.656Z,14.50
2018-06-19T14:51:57.844Z,15.93
2018-06-19T14:54:26.194Z,15.20
2018-06-19T14:56:54.454Z,16.35
2018-06-19T14:59:22.608Z,17.45
2018-06-19T15:01:50.813Z,16.25
2018-06-19T15:04:18.986Z,15.65
2018-06-19T15:06:47.162Z,19.37
2018-06-19T15:09:15.596Z,17.70
2018-06-19T15:11:43.769Z,16.55
2018-06-19T15:14:11.930Z,16.90
2018-06-19T15:16:40.247Z,16.62
2018-06-19T15:19:08.411Z,16.32
2018-06-19T15:21:36.634Z,16.27
2018-06-19T15:24:04.841Z,17.62
2018-06-19T15:26:32.973Z,18.15
2018-06-19T15:29:01.175Z,17.50
2018-06-19T15:31:29.366Z,17.80
2018-06-19T15:33:57.513Z,19.95
2018-06-19T15:36:25.725Z,16.37
2018-06-19T15:38:53.917Z,15.98
2018-06-19T15:41:22.085Z,14.63
2018-06-19T15:43:50.237Z,13.55
2018-06-19T15:46:18.405Z,13.22
2018-06-19T15:48:46.617Z,13.32
2018-06-19T15:51:14.901Z,14.03
2018-06-19T15:53:42.909Z,13.70
2018-06-19T15:56:11.075Z,13.98
2018-06-19T15:58:39.533Z,13.70
2018-06-19T16:01:07.743Z,14.63
2018-06-19T16:03:35.988Z,13.35
2018-06-19T16:06:04.207Z,14.33
2018-06-19T16:08:32.414Z,14.93
2018-06-19T16:11:00.879Z,16.87
2018-06-19T16:13:29.144Z,15.10
2018-06-19T16:15:58.001Z,17.48
2018-06-19T16:18:26.196Z,15.95
2018-06-19T16:20:54.595Z,15.32
2018-06-19T16:23:22.814Z,17.42
2018-06-19T16:25:51.082Z,16.67
2018-06-19T16:28:19.384Z,16.85
2018-06-19T16:30:47.645Z,18.85
2018-06-19T16:33:15.906Z,17.62
2018-06-19T16:35:44.278Z,18.85
2018-06-19T16:38:12.471Z,18.17
2018-06-19T16:40:40.420Z,18.32
2018-06-19T16:43:08.686Z,16.27
2018-06-19T16:45:36.874Z,16.12
2018-06-19T16:48:05.086Z,19.52
2018-06-19T16:50:33.281Z,20.92
2018-06-19T16:53:01.634Z,17.98
2018-06-19T16:55:29.912Z,17.35
2018-06-19T16:57:58.080Z,17.32
2018-06-19T17:00:26.357Z,18.52
2018-06-19T17:02:54.591Z,16.02
2018-06-19T17:05:22.762Z,18.65
2018-06-19T17:07:50.985Z,18.48
2018-06-19T17:10:19.174Z,18.23
2018-06-19T17:12:47.328Z,16.10
2018-06-19T17:15:15.526Z,15.65
2018-06-19T17:17:43.833Z,17.77
2018-06-19T17:20:12.026Z,17.62
2018-06-19T17:22:40.205Z,17.67
2018-06-19T17:25:08.402Z,18.62
2018-06-19T17:27:36.599Z,14.93
2018-06-19T17:30:05.104Z,17.05
2018-06-19T17:32:33.243Z,17.42
2018-06-19T17:35:01.426Z,15.45
2018-06-19T17:37:29.650Z,15.83
2018-06-19T17:39:57.882Z,14.33
2018-06-19T17:42:26.014Z,19.75
2018-06-19T17:44:54.263Z,18.95
2018-06-19T17:47:22.602Z,17.20
2018-06-19T17:49:50.807Z,15.85
2018-06-19T17:52:19.040Z,16.35
2018-06-19T17:54:47.230Z,16.15
2018-06-19T17:57:15.455Z,18.67
2018-06-19T17:59:43.726Z,17.73
2018-06-19T18:02:13.529Z,15.98
2018-06-19T18:04:41.698Z,18.52
2018-06-19T18:07:09.877Z,58.98
2018-06-19T18:09:38.052Z,22.75
2018-06-19T18:12:06.416Z,17.85
2018-06-19T18:14:34.582Z,17.40
2018-06-19T18:17:02.769Z,17.30
2018-06-19T18:19:30.942Z,16.45
2018-06-19T18:21:59.191Z,15.35
2018-06-19T18:24:27.362Z,17.30
2018-06-19T18:26:55.750Z,15.93
2018-06-19T18:29:23.925Z,16.62
2018-06-19T18:31:52.169Z,15.72
2018-06-19T18:34:20.426Z,16.20
2018-06-19T18:36:48.614Z,17.60
2018-06-19T18:39:16.796Z,17.95
2018-06-19T18:41:45.015Z,15.83
2018-06-19T18:44:13.274Z,17.05
2018-06-19T18:46:41.524Z,16.93
2018-06-19T18:49:09.709Z,17.20
2018-06-19T18:51:37.910Z,18.67
2018-06-19T18:54:06.257Z,13.30
2018-06-19T18:56:34.603Z,15.28
2018-06-19T18:59:02.907Z,14.25
2018-06-19T19:01:31.333Z,13.90
2018-06-19T19:03:59.540Z,12.93
2018-06-19T19:06:27.783Z,14.35
2018-06-19T19:08:56.009Z,12.80
2018-06-19T19:11:24.205Z,13.98
2018-06-19T19:13:52.693Z,14.20
2018-06-19T19:17:25.985Z,12.73
2018-06-19T19:19:54.206Z,13.40
2018-06-19T19:22:22.386Z,13.90
2018-06-19T19:24:50.558Z,14.00
2018-06-19T19:27:24.005Z,12.50
2018-06-19T19:29:52.257Z,13.28
2018-06-19T19:32:21.245Z,13.28
2018-06-19T19:34:49.479Z,12.30
2018-06-19T19:37:23.105Z,16.80
2018-06-19T19:39:51.313Z,15.95
2018-06-19T19:42:19.487Z,14.18
2018-06-19T19:44:47.682Z,11.78
2018-06-19T19:47:21.200Z,10.45
2018-06-19T19:49:49.394Z,11.30
2018-06-19T19:52:17.589Z,13.78
2018-06-19T19:54:45.783Z,12.23
2018-06-19T19:57:19.381Z,11.80
2018-06-19T19:59:47.623Z,11.30
2018-06-19T20:02:15.729Z,11.73
2018-06-19T20:04:43.936Z,10.40
2018-06-19T20:07:12.253Z,12.25
2018-06-19T20:09:40.458Z,14.80
2018-06-19T20:12:08.751Z,12.90
2018-06-19T20:14:36.946Z,12.88
2018-06-19T20:17:05.342Z,11.15
2018-06-19T20:19:33.278Z,13.72
2018-06-19T20:22:01.459Z,25.92
2018-06-19T20:24:29.633Z,19.80
2018-06-19T20:26:57.833Z,12.65
2018-06-19T20:29:26.056Z,13.32
2018-06-19T20:31:54.293Z,12.98
2018-06-19T20:34:22.496Z,12.33
2018-06-19T20:36:50.674Z,11.97
2018-06-19T20:39:18.892Z,11.03
2018-06-19T20:41:47.082Z,11.80
2018-06-19T20:44:15.080Z,13.43
2018-06-19T20:46:43.299Z,14.68
2018-06-19T20:49:11.573Z,13.80
2018-06-19T20:51:39.775Z,14.63
2018-06-19T20:54:07.985Z,12.18
2018-06-19T20:56:36.190Z,11.95
2018-06-19T20:59:04.474Z,13.18
2018-06-19T21:01:32.657Z,13.53
2018-06-19T21:04:00.612Z,12.60
2018-06-19T21:06:28.854Z,10.98
2018-06-19T21:08:57.022Z,13.43
2018-06-19T21:11:25.221Z,12.30
2018-06-19T21:13:53.445Z,13.40
2018-06-19T21:16:21.734Z,13.18
2018-06-19T21:18:49.956Z,11.83
2018-06-19T21:21:18.154Z,12.93
2018-06-19T21:23:46.402Z,12.60
2018-06-19T21:26:14.641Z,13.25
2018-06-19T21:28:42.826Z,14.10
2018-06-19T21:31:11.051Z,11.75
2018-06-19T21:33:39.301Z,15.50
2018-06-19T21:36:07.537Z,12.13
2018-06-19T21:38:35.652Z,12.55
2018-06-19T21:41:03.902Z,13.88
2018-06-19T21:43:32.115Z,12.07
2018-06-19T21:46:00.828Z,14.23
2018-06-19T21:48:29.058Z,13.05
2018-06-19T21:50:57.294Z,17.90
2018-06-19T21:53:26.221Z,11.90
2018-06-19T21:55:54.806Z,14.63
2018-06-19T21:58:23.299Z,11.90
2018-06-19T22:00:51.470Z,13.00
2018-06-19T22:03:20.094Z,12.93
2018-06-19T22:05:48.278Z,12.93
2018-06-19T22:08:16.471Z,15.98
2018-06-19T22:10:44.713Z,14.25
2018-06-19T22:13:12.957Z,14.23
2018-06-19T22:15:41.113Z,15.08
2018-06-19T22:18:09.414Z,13.98
2018-06-19T22:20:37.589Z,13.40
2018-06-19T22:23:05.843Z,15.43
2018-06-19T22:25:34.033Z,13.50
2018-06-19T22:28:02.205Z,12.45
2018-06-19T22:30:30.385Z,15.45
2018-06-19T22:32:58.559Z,14.15
2018-06-19T22:35:26.778Z,14.80
2018-06-19T22:37:54.950Z,13.88
2018-06-19T22:40:23.135Z,13.62
2018-06-19T22:42:51.330Z,13.78
2018-06-19T22:45:19.533Z,14.95
2018-06-19T22:47:47.757Z,12.55
2018-06-19T22:50:15.946Z,13.28
2018-06-19T22:52:44.139Z,14.25
2018-06-19T22:55:12.399Z,13.13
2018-06-19T22:57:40.645Z,13.40
2018-06-19T23:00:08.954Z,12.07
2018-06-19T23:02:37.210Z,14.20
2018-06-19T23:05:05.494Z,14.03
2018-06-19T23:07:33.714Z,11.40
2018-06-19T23:10:01.934Z,10.98
2018-06-19T23:12:30.111Z,12.50
2018-06-19T23:14:58.398Z,12.35
2018-06-19T23:17:26.582Z,14.70
2018-06-19T23:19:54.862Z,14.50
2018-06-19T23:22:23.088Z,11.35
2018-06-19T23:24:51.300Z,14.07
2018-06-19T23:27:19.610Z,16.23
2018-06-19T23:29:47.874Z,14.50
2018-06-19T23:32:16.130Z,13.50
2018-06-19T23:34:44.336Z,14.93
2018-06-19T23:37:12.753Z,16.40
2018-06-19T23:39:40.992Z,14.83
2018-06-19T23:42:09.174Z,16.52
2018-06-19T23:44:37.415Z,18.10
2018-06-19T23:47:05.624Z,19.85
2018-06-19T23:49:33.941Z,14.73
2018-06-19T23:52:02.102Z,17.48
2018-06-19T23:54:30.278Z,14.85
2018-06-19T23:56:58.463Z,14.85
2018-06-19T23:59:26.647Z,19.65
